createdAt,value
2023-11-15T00:00:10.700Z,2.75
2023-11-15T00:02:38.119Z,2.72
2023-11-15T00:05:05.769Z,3.33
2023-11-15T00:07:32.876Z,2.28
2023-11-15T00:09:59.463Z,2.70
2023-11-15T00:12:26.264Z,2.20
2023-11-15T00:14:53.589Z,2.53
2023-11-15T00:17:21.261Z,2.15
2023-11-15T00:19:47.762Z,2.70
2023-11-15T00:22:16.172Z,2.47
2023-11-15T00:24:44.249Z,4.28
2023-11-15T00:27:12.644Z,2.22
2023-11-15T00:29:39.205Z,2.47
2023-11-15T00:32:06.219Z,2.25
2023-11-15T00:34:33.298Z,2.67
2023-11-15T00:37:00.948Z,3.80
2023-11-15T00:39:29.435Z,2.10
2023-11-15T00:41:59.115Z,2.50
2023-11-15T00:44:25.696Z,2.58
2023-11-15T00:46:52.445Z,2.40
2023-11-15T00:51:45.566Z,2.13
2023-11-15T00:54:12.909Z,2.38
2023-11-15T00:56:39.470Z,1.95
2023-11-15T00:59:06.764Z,2.22
2023-11-15T01:01:33.490Z,2.38
2023-11-15T01:06:27.045Z,3.28
2023-11-15T01:08:56.004Z,3.38
2023-11-15T01:11:24.646Z,2.30
2023-11-15T01:13:51.231Z,2.00
2023-11-15T01:16:24.777Z,2.88
2023-11-15T01:18:54.379Z,2.05
2023-11-15T01:21:21.514Z,1.85
2023-11-15T01:23:48.101Z,2.08
2023-11-15T01:28:41.570Z,1.88
2023-11-15T01:33:35.475Z,2.35
2023-11-15T01:36:02.105Z,3.00
2023-11-15T01:38:30.732Z,1.73
2023-11-15T01:40:57.564Z,2.00
2023-11-15T01:45:52.486Z,2.45
2023-11-15T01:48:19.408Z,2.80
2023-11-15T01:50:47.817Z,2.05
2023-11-15T01:53:15.758Z,1.95
2023-11-15T01:55:44.730Z,2.10
2023-11-15T01:58:11.391Z,2.30
2023-11-15T02:00:38.129Z,2.20
2023-11-15T02:05:31.355Z,2.72
2023-11-15T02:07:58.148Z,1.83
2023-11-15T02:12:51.241Z,3.00
2023-11-15T02:15:17.880Z,2.47
2023-11-15T02:17:44.916Z,2.63
2023-11-15T02:20:12.052Z,2.65
2023-11-15T02:22:48.629Z,3.03
2023-11-15T02:25:15.687Z,3.30
2023-11-15T02:27:43.256Z,3.30
2023-11-15T02:30:10.254Z,2.90
2023-11-15T02:46:58.771Z,4.20
2023-11-15T02:49:25.278Z,3.60
2023-11-15T02:51:52.011Z,4.10
2023-11-15T02:56:44.979Z,3.65
2023-11-15T02:59:11.594Z,3.58
2023-11-15T03:01:47.090Z,3.08
2023-11-15T03:04:13.816Z,4.20
2023-11-15T03:09:09.242Z,2.97
2023-11-15T03:11:36.388Z,5.43
2023-11-15T03:14:04.002Z,3.28
2023-11-15T03:16:31.003Z,3.30
2023-11-15T03:18:57.507Z,3.13
2023-11-15T03:21:24.238Z,3.00
2023-11-15T03:26:17.462Z,2.00
2023-11-15T03:31:13.814Z,1.92
2023-11-15T03:33:41.834Z,1.98
2023-11-15T03:36:08.604Z,1.67
2023-11-15T03:41:02.406Z,1.90
2023-11-15T03:45:55.914Z,2.08
2023-11-15T03:48:22.627Z,1.75
2023-11-15T03:53:15.849Z,2.00
2023-11-15T03:58:11.899Z,1.52
2023-11-15T04:00:38.440Z,1.65
2023-11-15T04:03:05.165Z,1.38
2023-11-15T04:05:33.006Z,1.52
2023-11-15T04:08:00.292Z,1.45
2023-11-15T04:10:26.929Z,1.90
2023-11-15T04:12:55.669Z,1.48
2023-11-15T04:15:25.440Z,1.80
2023-11-15T04:17:52.108Z,1.60
2023-11-15T04:22:45.970Z,1.00
2023-11-15T04:27:41.571Z,1.50
2023-11-15T04:30:11.248Z,1.20
2023-11-15T04:32:37.897Z,1.13
2023-11-15T04:35:04.913Z,0.90
2023-11-15T04:37:31.367Z,0.93
2023-11-15T04:39:58.137Z,1.05
2023-11-15T04:44:52.441Z,1.10
2023-11-15T04:47:19.508Z,0.70
2023-11-15T04:49:46.751Z,1.20
2023-11-15T04:52:13.247Z,0.82
2023-11-15T04:54:39.770Z,1.20
2023-11-15T04:57:06.389Z,0.88
2023-11-15T04:59:33.150Z,0.80
2023-11-15T05:02:00.030Z,0.98
2023-11-15T05:06:55.620Z,1.30
2023-11-15T05:09:24.129Z,1.15
2023-11-15T05:12:26.528Z,1.00
2023-11-15T05:15:08.664Z,1.08
2023-11-15T05:21:22.277Z,1.20
2023-11-15T05:23:49.418Z,1.35
2023-11-15T05:26:17.417Z,1.10
2023-11-15T05:28:44.612Z,1.20
2023-11-15T05:31:11.170Z,1.17
2023-11-15T05:33:37.788Z,1.30
2023-11-15T05:38:31.074Z,1.13
2023-11-15T05:40:58.422Z,1.13
2023-11-15T05:43:24.880Z,1.10
2023-11-15T05:45:51.475Z,1.08
2023-11-15T05:48:19.058Z,0.93
2023-11-15T05:50:49.092Z,1.10
2023-11-15T05:53:17.113Z,1.55
2023-11-15T05:55:43.588Z,1.55
2023-11-15T05:58:10.919Z,1.35
2023-11-15T06:00:37.460Z,1.20
2023-11-15T06:03:04.738Z,1.40
2023-11-15T06:05:31.530Z,1.05
2023-11-15T06:10:31.551Z,1.52
2023-11-15T06:12:58.101Z,1.70
2023-11-15T06:15:25.286Z,1.73
2023-11-15T06:17:55.786Z,1.70
2023-11-15T06:20:22.334Z,1.67
2023-11-15T06:22:53.243Z,1.85
2023-11-15T06:25:20.270Z,1.40
2023-11-15T06:27:47.129Z,1.90
2023-11-15T06:32:45.797Z,1.90
2023-11-15T06:35:20.042Z,2.22
2023-11-15T06:37:47.829Z,1.88
2023-11-15T06:40:15.916Z,2.00
2023-11-15T06:46:18.712Z,1.90
2023-11-15T06:48:45.531Z,2.00
2023-11-15T06:51:12.174Z,2.13
2023-11-15T06:53:39.542Z,2.08
2023-11-15T06:56:08.731Z,2.53
2023-11-15T06:58:36.935Z,2.17
2023-11-15T07:01:06.599Z,2.28
2023-11-15T07:03:33.311Z,2.55
2023-11-15T07:08:27.584Z,2.30
2023-11-15T07:10:56.309Z,3.08
2023-11-15T07:13:23.358Z,2.10
2023-11-15T07:15:51.341Z,2.90
2023-11-15T07:18:18.503Z,2.53
2023-11-15T07:20:46.136Z,2.83
2023-11-15T07:25:07.591Z,2.58
2023-11-15T07:36:18.824Z,2.55
2023-11-15T07:39:27.242Z,2.33
2023-11-15T07:41:55.907Z,2.67
2023-11-15T08:39:55.513Z,2.85
2023-11-15T08:44:49.648Z,2.78
2023-11-15T08:47:18.812Z,3.15
2023-11-15T08:49:49.660Z,2.55
2023-11-15T08:52:19.816Z,2.95
2023-11-15T08:54:47.483Z,3.40
2023-11-15T08:57:30.163Z,4.13
2023-11-15T08:59:57.293Z,2.70
2023-11-15T09:02:24.190Z,3.10
2023-11-15T09:05:03.181Z,3.13
2023-11-15T09:07:41.952Z,3.42
2023-11-15T09:10:10.396Z,2.72
2023-11-15T09:12:39.666Z,3.42
2023-11-15T09:15:17.114Z,3.55
2023-11-15T09:18:11.458Z,3.58
2023-11-15T09:20:45.381Z,3.10
2023-11-15T09:23:31.090Z,2.63
2023-11-15T09:26:01.146Z,2.90
2023-11-15T09:28:42.500Z,2.97
2023-11-15T09:31:27.033Z,3.65
2023-11-15T09:33:55.872Z,3.45
2023-11-15T09:36:22.668Z,3.85
2023-11-15T09:41:25.031Z,3.55
2023-11-15T09:43:57.735Z,4.28
2023-11-15T09:46:28.125Z,3.47
2023-11-15T09:49:00.399Z,4.40
2023-11-15T09:51:35.478Z,4.18
2023-11-15T09:54:16.264Z,4.70
2023-11-15T09:57:25.963Z,4.10
2023-11-15T10:00:00.645Z,4.30
2023-11-15T10:02:37.892Z,3.55
2023-11-15T10:13:12.642Z,4.35
2023-11-15T10:15:49.946Z,4.45
2023-11-15T10:21:13.349Z,5.18
2023-11-15T10:23:41.857Z,4.10
2023-11-15T10:26:12.405Z,4.38
2023-11-15T10:28:58.925Z,4.50
2023-11-15T10:31:26.269Z,4.32
2023-11-15T10:33:55.008Z,3.78
2023-11-15T10:36:26.550Z,4.05
2023-11-15T10:39:00.865Z,3.90
2023-11-15T10:41:30.954Z,4.57
2023-11-15T10:43:58.312Z,4.22
2023-11-15T10:46:32.804Z,3.70
2023-11-15T10:49:12.082Z,4.55
2023-11-15T10:51:45.798Z,3.25
2023-11-15T10:58:06.542Z,3.63
2023-11-15T11:00:37.720Z,4.03
2023-11-15T11:04:03.230Z,4.18
2023-11-15T11:06:59.462Z,3.90
2023-11-15T11:12:59.619Z,3.40
2023-11-15T11:15:28.950Z,3.65
2023-11-15T11:18:13.627Z,3.42
2023-11-15T11:20:55.588Z,3.22
2023-11-15T11:23:23.418Z,3.55
2023-11-15T11:25:53.043Z,2.90
2023-11-15T11:28:23.009Z,3.08
2023-11-15T11:31:16.295Z,2.42
2023-11-15T11:34:05.857Z,2.38
2023-11-15T11:37:02.060Z,2.38
2023-11-15T11:39:48.623Z,2.75
2023-11-15T11:42:25.608Z,2.50
2023-11-15T11:45:07.485Z,2.28
2023-11-15T11:47:43.033Z,2.42
2023-11-15T11:53:14.027Z,2.10
2023-11-15T11:53:23.945Z,2.08
2023-11-15T11:56:02.622Z,2.35
2023-11-15T11:58:52.666Z,2.00
2023-11-15T12:01:38.253Z,2.47
2023-11-15T12:04:08.370Z,1.95
2023-11-15T12:06:40.909Z,2.13
2023-11-15T12:09:13.079Z,2.03
2023-11-15T12:11:41.906Z,2.22
2023-11-15T12:14:25.149Z,2.20
2023-11-15T12:16:55.953Z,2.08
2023-11-15T12:19:40.667Z,2.33
2023-11-15T12:22:10.150Z,2.08
2023-11-15T12:24:39.200Z,2.17
2023-11-15T12:27:05.879Z,1.85
2023-11-15T12:32:23.762Z,1.80
2023-11-15T12:34:50.734Z,1.85
2023-11-15T12:45:32.385Z,2.08
2023-11-15T12:48:06.338Z,2.10
2023-11-15T12:54:13.464Z,1.83
2023-11-15T12:56:38.323Z,1.85
2023-11-15T12:59:12.102Z,2.08
2023-11-15T13:01:52.007Z,2.00
2023-11-15T13:04:18.782Z,1.80
2023-11-15T13:12:24.562Z,2.00
2023-11-15T13:14:55.840Z,1.95
2023-11-15T13:17:22.639Z,2.50
2023-11-15T13:22:17.759Z,2.00
2023-11-15T13:24:49.645Z,1.98
2023-11-15T13:27:19.187Z,1.88
2023-11-15T13:29:46.030Z,2.25
2023-11-15T13:32:56.654Z,2.00
2023-11-15T13:35:23.478Z,1.77
2023-11-15T13:41:09.468Z,1.75
2023-11-15T13:43:47.033Z,1.75
2023-11-15T13:46:23.236Z,1.42
2023-11-15T13:56:14.436Z,1.40
2023-11-15T13:59:15.257Z,1.58
2023-11-15T14:01:49.106Z,1.30
2023-11-15T14:04:21.664Z,1.55
2023-11-15T14:06:53.843Z,1.40
2023-11-15T14:09:22.067Z,1.23
2023-11-15T14:12:10.387Z,1.25
2023-11-15T14:14:45.547Z,1.60
2023-11-15T14:17:13.190Z,1.33
2023-11-15T14:19:43.083Z,1.30
2023-11-15T14:22:20.936Z,1.25
2023-11-15T14:28:52.412Z,1.20
2023-11-15T14:31:19.299Z,1.10
2023-11-15T14:34:42.169Z,1.00
2023-11-15T14:37:11.952Z,0.93
2023-11-15T14:40:03.984Z,1.23
2023-11-15T14:42:34.378Z,0.82
2023-11-15T14:52:45.505Z,1.00
2023-11-15T14:55:15.687Z,0.80
2023-11-15T14:57:43.091Z,1.27
2023-11-15T15:00:40.534Z,0.98
2023-11-15T15:03:07.228Z,1.10
2023-11-15T15:08:18.901Z,1.10
2023-11-15T15:15:24.482Z,1.05
2023-11-15T15:17:51.384Z,1.00
2023-11-15T15:20:19.979Z,1.05
2023-11-15T15:22:48.038Z,1.55
2023-11-15T15:25:15.405Z,1.27
2023-11-15T15:27:42.630Z,1.40
2023-11-15T15:30:33.960Z,1.30
2023-11-15T15:33:02.202Z,1.58
2023-11-15T15:35:30.347Z,1.30
2023-11-15T15:37:57.729Z,1.08
2023-11-15T15:40:31.702Z,1.48
2023-11-15T15:42:58.656Z,1.23
2023-11-15T15:45:27.724Z,1.08
2023-11-15T15:47:58.067Z,1.15
2023-11-15T15:50:36.232Z,1.27
2023-11-15T15:53:03.356Z,1.60
2023-11-15T15:55:30.288Z,1.20
2023-11-15T15:57:56.922Z,1.50
2023-11-15T16:00:34.825Z,1.00
2023-11-15T16:03:01.663Z,1.38
2023-11-15T16:16:35.007Z,1.30
2023-11-15T16:19:07.230Z,1.10
2023-11-15T16:21:34.001Z,1.00
2023-11-15T16:26:28.204Z,1.52
2023-11-15T16:28:57.644Z,1.10
2023-11-15T16:31:24.164Z,1.10
2023-11-15T16:33:50.720Z,1.52
2023-11-15T16:36:19.051Z,1.23
2023-11-15T16:38:45.597Z,1.27
2023-11-15T16:41:18.562Z,1.70
2023-11-15T16:43:45.091Z,1.90
2023-11-15T16:46:11.587Z,1.67
2023-11-15T16:48:38.171Z,1.98
2023-11-15T16:51:23.697Z,1.98
2023-11-15T16:53:50.435Z,1.60
2023-11-15T16:58:51.669Z,2.03
2023-11-15T17:01:18.602Z,1.63
2023-11-15T17:03:47.722Z,1.90
2023-11-15T17:06:17.274Z,1.52
2023-11-15T17:08:44.744Z,1.85
2023-11-15T17:11:21.123Z,1.83
2023-11-15T17:13:49.945Z,1.50
2023-11-15T17:16:19.807Z,1.80
2023-11-15T17:18:46.914Z,1.83
2023-11-15T17:21:13.735Z,1.65
2023-11-15T17:26:13.493Z,1.90
2023-11-15T17:28:42.874Z,1.75
2023-11-15T17:31:10.168Z,1.92
2023-11-15T17:33:39.336Z,2.00
2023-11-15T17:36:06.378Z,1.80
2023-11-15T17:38:33.177Z,1.92
2023-11-15T17:43:27.945Z,2.13
2023-11-15T17:45:54.627Z,1.98
2023-11-15T17:50:47.732Z,1.52
2023-11-15T17:53:19.076Z,1.80
2023-11-15T17:55:52.774Z,2.08
2023-11-15T17:58:27.894Z,1.95
2023-11-15T18:01:00.060Z,1.70
2023-11-15T18:03:29.920Z,1.67
2023-11-15T18:13:38.612Z,1.98
2023-11-15T18:16:21.836Z,2.30
2023-11-15T18:19:06.379Z,2.20
2023-11-15T18:21:33.374Z,2.00
2023-11-15T18:24:00.797Z,2.00
2023-11-15T18:26:47.998Z,1.98
2023-11-15T18:29:14.833Z,2.20
2023-11-15T18:31:41.523Z,2.95
2023-11-15T18:36:58.747Z,3.47
2023-11-15T18:39:25.442Z,3.83
2023-11-15T18:44:21.445Z,3.80
2023-11-15T18:46:50.330Z,4.50
2023-11-15T18:49:24.703Z,4.03
2023-11-15T18:51:53.989Z,4.13
2023-11-15T18:54:21.512Z,4.28
2023-11-15T18:56:48.108Z,4.95
2023-11-15T18:59:15.111Z,3.78
2023-11-15T19:01:45.907Z,4.43
2023-11-15T19:04:13.475Z,4.50
2023-11-15T19:06:47.036Z,4.28
2023-11-15T19:09:17.761Z,4.88
2023-11-15T19:11:45.292Z,4.53
2023-11-15T19:19:06.122Z,4.55
2023-11-15T19:21:39.272Z,4.22
2023-11-15T19:24:11.142Z,3.85
2023-11-15T19:26:38.229Z,3.95
2023-11-15T19:29:15.536Z,4.75
2023-11-15T19:34:27.394Z,4.07
2023-11-15T19:37:09.773Z,3.45
2023-11-15T19:39:51.476Z,3.65
2023-11-15T19:42:18.459Z,3.58
2023-11-15T19:44:46.703Z,3.60
2023-11-15T19:47:44.974Z,4.40
2023-11-15T19:50:12.843Z,3.30
2023-11-15T19:52:45.484Z,4.47
2023-11-15T19:55:14.794Z,4.05
2023-11-15T19:57:44.110Z,4.80
2023-11-15T20:00:16.526Z,4.05
2023-11-15T20:15:43.558Z,3.88
2023-11-15T20:26:05.875Z,3.95
2023-11-15T20:33:49.627Z,4.78
2023-11-15T20:48:45.879Z,4.78
2023-11-15T20:51:48.947Z,3.42
2023-11-15T20:54:59.878Z,4.32
2023-11-15T20:57:39.341Z,4.05
2023-11-15T21:00:51.112Z,3.92
2023-11-15T21:03:58.439Z,4.60
2023-11-15T21:07:06.225Z,4.30
2023-11-15T21:22:50.389Z,4.65
2023-11-15T21:36:43.052Z,3.88
2023-11-15T22:36:19.071Z,3.83
2023-11-15T22:38:52.020Z,3.00
2023-11-15T22:41:19.190Z,3.63
2023-11-15T22:43:46.010Z,3.65
2023-11-15T22:46:13.550Z,4.05
2023-11-15T22:48:40.346Z,3.47
2023-11-15T22:51:07.399Z,3.35
2023-11-15T22:53:34.971Z,3.45
2023-11-15T22:56:03.913Z,3.83
2023-11-15T22:58:32.877Z,3.67
2023-11-15T23:00:59.704Z,3.35
2023-11-15T23:03:26.879Z,3.45
2023-11-15T23:05:54.880Z,3.60
2023-11-15T23:08:21.743Z,4.40
2023-11-15T23:10:48.540Z,3.90
2023-11-15T23:15:43.397Z,3.60
2023-11-15T23:23:08.565Z,3.72
2023-11-15T23:25:39.083Z,3.95
2023-11-15T23:28:07.476Z,4.30
2023-11-15T23:30:36.196Z,3.75
2023-11-15T23:33:03.172Z,4.70
2023-11-15T23:37:59.334Z,3.92
2023-11-15T23:40:30.264Z,4.78
2023-11-15T23:42:57.616Z,4.63
2023-11-15T23:45:24.763Z,4.13
2023-11-15T23:47:52.530Z,5.25
2023-11-15T23:50:19.941Z,3.92
2023-11-15T23:52:51.214Z,4.70
2023-11-15T23:55:17.660Z,4.50
2023-11-15T23:57:44.444Z,5.50
